Hadlyme, Connecticut
Current Conditions -  °F | °C
As of 9:15 PM on Wednesday 22 Oct 2014 (Local Time) from KSNC Reporting Station
Heavy Rain Heavy Rain  
Wind Chill: 43°   Ceiling: 1300
Heat Index: 48°   Visibility: 2.5mi
Dew Point: 46°   Wind: 14mph
Humidity: 93%   Direction: 20°NNE
Pressure: 29.71"   Gusts: 29mph
Location:  41.42°N, 72.41°W
Report Text: KSNC 230115Z AUTO 02012G25KT 2 1/2SM +RA FEW001 OVC013 09/08 A2971 RMK AO2 P0033
Loading
Personal Weather Stations






























Interactive Weather Map
Tropical Storm Tracking
New forecast layout! Learn more

10-Day Weather Forecast

Advertisements
Track Severe Weather on mobile